createdAt,value
2023-05-23T00:02:29.366Z,17.70
2023-05-23T00:04:58.570Z,17.70
2023-05-23T00:07:28.566Z,17.70
2023-05-23T00:09:56.848Z,17.60
2023-05-23T00:12:25.317Z,17.70
2023-05-23T00:14:54.123Z,17.60
2023-05-23T00:17:25.411Z,17.60
2023-05-23T00:19:56.069Z,17.60
2023-05-23T00:22:24.422Z,17.60
2023-05-23T00:24:54.316Z,17.60
2023-05-23T00:27:22.486Z,17.50
2023-05-23T00:29:50.780Z,17.50
2023-05-23T00:32:19.108Z,17.50
2023-05-23T00:34:47.395Z,17.50
2023-05-23T00:37:16.490Z,17.50
2023-05-23T00:39:44.641Z,17.50
2023-05-23T00:42:14.569Z,17.50
2023-05-23T00:44:42.870Z,17.50
2023-05-23T00:47:13.790Z,17.50
2023-05-23T00:49:42.457Z,17.40
2023-05-23T00:52:11.541Z,17.40
2023-05-23T00:54:41.070Z,17.40
2023-05-23T00:57:11.358Z,17.30
2023-05-23T00:59:41.642Z,17.30
2023-05-23T01:02:10.666Z,17.30
2023-05-23T01:04:40.072Z,17.30
2023-05-23T01:07:08.276Z,17.20
2023-05-23T01:09:36.687Z,17.20
2023-05-23T01:12:16.270Z,17.20
2023-05-23T01:14:52.792Z,17.20
2023-05-23T01:17:28.188Z,17.20
2023-05-23T01:20:01.679Z,17.20
2023-05-23T01:22:42.794Z,17.20
2023-05-23T01:25:29.253Z,17.20
2023-05-23T01:28:03.248Z,17.20
2023-05-23T01:30:34.053Z,17.20
2023-05-23T01:33:03.434Z,17.20
2023-05-23T01:35:32.957Z,17.10
2023-05-23T01:38:01.285Z,17.00
2023-05-23T01:40:30.614Z,17.00
2023-05-23T01:43:00.371Z,17.00
2023-05-23T01:45:30.850Z,16.90
2023-05-23T01:48:00.258Z,16.90
2023-05-23T01:50:29.857Z,16.90
2023-05-23T01:52:58.630Z,16.90
2023-05-23T01:55:27.911Z,16.90
2023-05-23T01:57:57.902Z,16.90
2023-05-23T02:00:27.715Z,16.90
2023-05-23T02:02:55.988Z,16.80
2023-05-23T02:05:24.799Z,16.80
2023-05-23T02:07:53.354Z,16.80
2023-05-23T02:10:21.937Z,16.80
2023-05-23T02:12:50.353Z,16.80
2023-05-23T02:15:18.881Z,16.80
2023-05-23T02:17:49.699Z,16.90
2023-05-23T02:20:18.996Z,16.90
2023-05-23T02:22:49.814Z,16.90
2023-05-23T02:25:18.066Z,16.80
2023-05-23T02:27:46.268Z,16.80
2023-05-23T02:30:15.281Z,16.80
2023-05-23T02:32:43.840Z,16.80
2023-05-23T02:35:13.844Z,16.80
2023-05-23T02:37:42.644Z,16.80
2023-05-23T02:40:11.705Z,16.80
2023-05-23T02:42:39.909Z,16.80
2023-05-23T02:45:09.903Z,16.80
2023-05-23T02:47:38.901Z,16.80
2023-05-23T02:50:08.355Z,16.80
2023-05-23T02:52:38.290Z,16.80
2023-05-23T02:55:07.481Z,16.80
2023-05-23T02:57:41.422Z,16.80
2023-05-23T03:00:12.440Z,16.80
2023-05-23T03:02:42.984Z,16.80
2023-05-23T03:05:11.258Z,16.80
2023-05-23T03:07:40.919Z,16.80
2023-05-23T03:10:10.725Z,16.80
2023-05-23T03:12:39.853Z,16.80
2023-05-23T03:15:09.941Z,16.80
2023-05-23T03:17:41.287Z,16.80
2023-05-23T03:20:10.340Z,16.80
2023-05-23T03:22:43.724Z,16.80
2023-05-23T03:25:12.109Z,16.80
2023-05-23T03:27:40.281Z,16.80
2023-05-23T03:30:09.870Z,16.80
2023-05-23T03:32:38.382Z,16.90
2023-05-23T03:35:07.872Z,16.90
2023-05-23T03:37:36.178Z,16.90
2023-05-23T03:40:07.342Z,16.90
2023-05-23T03:42:37.970Z,16.90
2023-05-23T03:45:08.093Z,16.90
2023-05-23T03:47:36.415Z,16.90
2023-05-23T03:50:05.212Z,16.90
2023-05-23T03:52:34.573Z,16.90
2023-05-23T03:55:03.655Z,17.00
2023-05-23T03:57:33.604Z,16.90
2023-05-23T04:00:01.806Z,17.00
2023-05-23T04:02:33.042Z,17.00
2023-05-23T04:05:01.674Z,17.00
2023-05-23T04:07:30.491Z,17.00
2023-05-23T04:09:58.645Z,17.00
2023-05-23T04:12:27.155Z,17.00
2023-05-23T04:14:58.040Z,17.10
2023-05-23T04:17:29.645Z,17.10
2023-05-23T04:19:58.394Z,17.10
2023-05-23T04:22:26.891Z,17.10
2023-05-23T04:24:55.239Z,17.10
2023-05-23T04:27:26.413Z,17.10
2023-05-23T04:29:58.476Z,17.10
2023-05-23T04:32:26.851Z,17.20
2023-05-23T04:34:56.795Z,17.20
2023-05-23T04:37:26.527Z,17.20
2023-05-23T04:39:55.866Z,17.20
2023-05-23T04:42:44.704Z,17.20
2023-05-23T04:45:41.603Z,17.10
2023-05-23T04:48:27.649Z,17.20
2023-05-23T04:51:02.236Z,17.20
2023-05-23T04:53:31.382Z,17.20
2023-05-23T04:56:00.360Z,17.20
2023-05-23T04:58:29.182Z,17.20
2023-05-23T05:01:04.695Z,17.20
2023-05-23T05:03:33.707Z,17.20
2023-05-23T05:06:02.154Z,17.20
2023-05-23T05:08:30.330Z,17.30
2023-05-23T05:10:59.122Z,17.20
2023-05-23T05:13:27.600Z,17.30
2023-05-23T05:15:57.476Z,17.30
2023-05-23T05:18:29.287Z,17.30
2023-05-23T05:20:59.608Z,17.40
2023-05-23T05:23:29.539Z,17.40
2023-05-23T05:25:58.916Z,17.40
2023-05-23T05:28:27.098Z,17.40
2023-05-23T05:30:55.542Z,17.40
2023-05-23T05:33:25.233Z,17.40
2023-05-23T05:36:09.901Z,17.50
2023-05-23T05:38:38.133Z,17.40
2023-05-23T05:41:08.951Z,17.40
2023-05-23T05:43:41.234Z,17.50
2023-05-23T05:46:10.285Z,17.50
2023-05-23T05:48:38.979Z,17.50
2023-05-23T05:51:11.655Z,17.50
2023-05-23T05:53:41.370Z,17.50
2023-05-23T05:56:10.076Z,17.50
2023-05-23T05:58:40.277Z,17.50
2023-05-23T06:01:10.352Z,17.50
2023-05-23T06:03:39.096Z,17.50
2023-05-23T06:06:09.011Z,17.50
2023-05-23T06:08:40.995Z,17.50
2023-05-23T06:11:13.214Z,17.60
2023-05-23T06:13:41.644Z,17.60
2023-05-23T06:16:10.023Z,17.60
2023-05-23T06:18:38.548Z,17.60
2023-05-23T06:21:07.031Z,17.60
2023-05-23T06:23:37.294Z,17.60
2023-05-23T06:26:10.836Z,17.60
2023-05-23T06:28:40.355Z,17.70
2023-05-23T06:31:10.247Z,17.70
2023-05-23T06:33:38.588Z,17.70
2023-05-23T06:36:07.092Z,17.70
2023-05-23T06:38:35.264Z,17.70
2023-05-23T06:41:04.479Z,17.80
2023-05-23T06:43:35.297Z,17.80
2023-05-23T06:46:18.247Z,17.80
2023-05-23T06:48:46.684Z,17.90
2023-05-23T06:51:15.419Z,17.80
2023-05-23T06:53:44.391Z,17.90
2023-05-23T06:56:13.313Z,17.90
2023-05-23T06:58:53.785Z,17.90
2023-05-23T07:01:23.088Z,17.90
2023-05-23T07:03:52.644Z,17.90
2023-05-23T07:06:20.854Z,18.00
2023-05-23T07:08:49.089Z,18.00
2023-05-23T07:11:18.064Z,18.00
2023-05-23T07:13:54.075Z,18.00
2023-05-23T07:16:32.856Z,18.00
2023-05-23T07:19:07.502Z,18.00
2023-05-23T07:21:41.112Z,18.10
2023-05-23T07:24:09.928Z,18.10
2023-05-23T07:26:39.157Z,18.00
2023-05-23T07:29:09.111Z,18.10
2023-05-23T07:31:38.376Z,18.10
2023-05-23T07:34:07.227Z,18.00
2023-05-23T07:36:43.848Z,18.10
2023-05-23T07:39:14.796Z,18.10
2023-05-23T07:41:43.115Z,18.10
2023-05-23T07:44:12.764Z,18.10
2023-05-23T07:46:41.503Z,18.10
2023-05-23T07:49:10.526Z,18.10
2023-05-23T07:51:39.986Z,18.20
2023-05-23T07:54:08.642Z,18.20
2023-05-23T07:56:40.439Z,18.20
2023-05-23T07:59:09.512Z,18.30
2023-05-23T08:01:40.638Z,18.30
2023-05-23T08:04:09.489Z,18.30
2023-05-23T08:07:03.561Z,18.30
2023-05-23T08:09:53.877Z,18.30
2023-05-23T08:12:23.082Z,18.40
2023-05-23T08:14:59.889Z,18.40
2023-05-23T08:17:36.192Z,18.50
2023-05-23T08:20:06.003Z,18.50
2023-05-23T08:22:34.367Z,18.50
2023-05-23T08:25:03.254Z,18.50
2023-05-23T08:27:33.911Z,18.50
2023-05-23T08:30:09.875Z,18.50
2023-05-23T08:32:40.546Z,18.50
2023-05-23T08:35:09.628Z,18.50
2023-05-23T08:37:39.030Z,18.60
2023-05-23T08:40:14.149Z,18.60
2023-05-23T08:42:49.851Z,18.60
2023-05-23T08:45:19.360Z,18.60
2023-05-23T08:47:50.109Z,18.60
2023-05-23T08:50:22.844Z,18.60
2023-05-23T08:52:59.275Z,18.60
2023-05-23T08:55:30.411Z,18.70
2023-05-23T08:58:01.278Z,18.60
2023-05-23T09:00:51.383Z,18.70
2023-05-23T09:03:22.315Z,18.70
2023-05-23T09:06:10.190Z,18.70
2023-05-23T09:08:40.235Z,18.70
2023-05-23T09:11:13.095Z,18.70
2023-05-23T09:13:41.990Z,18.70
2023-05-23T09:16:12.941Z,18.70
2023-05-23T09:18:48.161Z,18.70
2023-05-23T09:21:18.287Z,18.70
2023-05-23T09:23:57.004Z,18.70
2023-05-23T09:26:28.102Z,18.70
2023-05-23T09:28:59.603Z,18.60
2023-05-23T09:31:29.506Z,18.60
2023-05-23T09:34:01.114Z,18.60
2023-05-23T09:36:33.821Z,18.60
2023-05-23T09:39:06.185Z,18.60
2023-05-23T09:41:35.469Z,18.60
2023-05-23T09:44:08.261Z,18.60
2023-05-23T09:46:38.546Z,18.50
2023-05-23T09:49:19.020Z,18.50
2023-05-23T09:51:59.463Z,18.50
2023-05-23T09:54:28.115Z,18.50
2023-05-23T09:56:57.738Z,18.50
2023-05-23T09:59:31.047Z,18.50
2023-05-23T10:02:01.914Z,18.60
2023-05-23T10:04:35.463Z,18.60
2023-05-23T10:07:16.239Z,18.60
2023-05-23T10:09:49.569Z,18.60
2023-05-23T10:12:42.603Z,18.60
2023-05-23T10:15:12.769Z,18.60
2023-05-23T10:18:02.154Z,18.70
2023-05-23T10:20:34.128Z,18.80
2023-05-23T10:23:05.311Z,18.80
2023-05-23T10:25:35.948Z,18.90
2023-05-23T10:28:05.197Z,18.90
2023-05-23T10:30:33.933Z,19.00
2023-05-23T10:33:03.318Z,19.00
2023-05-23T10:35:45.779Z,19.00
2023-05-23T10:38:28.332Z,19.00
2023-05-23T10:41:02.757Z,19.10
2023-05-23T10:43:35.833Z,19.20
2023-05-23T10:46:04.199Z,19.20
2023-05-23T10:48:42.305Z,19.10
2023-05-23T10:51:14.599Z,19.20
2023-05-23T10:53:45.990Z,19.20
2023-05-23T10:56:21.823Z,19.10
2023-05-23T10:58:54.300Z,19.20
2023-05-23T11:01:23.653Z,19.10
2023-05-23T11:03:55.724Z,19.10
2023-05-23T11:06:34.047Z,19.10
2023-05-23T11:09:07.561Z,19.10
2023-05-23T11:12:05.451Z,19.10
2023-05-23T11:14:37.908Z,19.00
2023-05-23T11:17:17.777Z,19.00
2023-05-23T11:20:02.065Z,19.00
2023-05-23T11:22:33.001Z,19.00
2023-05-23T11:25:07.646Z,18.90
2023-05-23T11:27:38.078Z,18.90
2023-05-23T11:30:09.016Z,18.90
2023-05-23T11:32:38.714Z,19.00
2023-05-23T11:35:09.179Z,19.00
2023-05-23T11:37:40.414Z,19.00
2023-05-23T11:40:29.106Z,19.00
2023-05-23T11:42:57.527Z,19.10
2023-05-23T11:45:27.054Z,19.10
2023-05-23T11:47:56.163Z,19.10
2023-05-23T11:50:25.703Z,19.10
2023-05-23T11:52:56.271Z,19.20
2023-05-23T11:55:25.384Z,19.20
2023-05-23T11:57:58.252Z,19.20
2023-05-23T12:00:26.779Z,19.20
2023-05-23T12:02:55.184Z,19.20
2023-05-23T12:05:23.579Z,19.30
2023-05-23T12:07:51.934Z,19.30
2023-05-23T12:10:22.729Z,19.30
2023-05-23T12:12:53.563Z,19.30
2023-05-23T12:15:27.198Z,19.20
2023-05-23T12:17:56.821Z,19.20
2023-05-23T12:20:28.824Z,19.20
2023-05-23T12:22:58.802Z,19.20
2023-05-23T12:25:28.794Z,19.20
2023-05-23T12:27:58.205Z,19.20
2023-05-23T12:30:26.457Z,19.20
2023-05-23T12:32:54.955Z,19.20
2023-05-23T12:35:27.522Z,19.20
2023-05-23T12:37:58.869Z,19.30
2023-05-23T12:40:28.663Z,19.30
2023-05-23T12:42:58.127Z,19.30
2023-05-23T12:45:34.091Z,19.40
2023-05-23T12:48:03.207Z,19.40
2023-05-23T12:50:32.074Z,19.50
2023-05-23T12:53:00.914Z,19.50
2023-05-23T12:55:30.565Z,19.60
2023-05-23T12:57:58.914Z,19.60
2023-05-23T13:00:27.342Z,19.60
2023-05-23T13:02:55.692Z,19.70
2023-05-23T13:05:24.704Z,19.60
2023-05-23T13:07:53.040Z,19.70
2023-05-23T13:10:21.498Z,19.70
2023-05-23T13:12:51.078Z,19.70
2023-05-23T13:15:19.510Z,19.70
2023-05-23T13:17:50.214Z,19.70
2023-05-23T13:20:19.021Z,19.80
2023-05-23T13:22:47.314Z,19.80
2023-05-23T13:25:16.121Z,19.90
2023-05-23T13:27:45.573Z,19.80
2023-05-23T13:30:16.910Z,19.80
2023-05-23T13:32:45.518Z,19.90
2023-05-23T13:35:13.972Z,19.90
2023-05-23T13:37:42.252Z,19.90
2023-05-23T13:40:15.056Z,19.90
2023-05-23T13:42:43.412Z,20.00
2023-05-23T13:45:12.214Z,20.00
2023-05-23T13:47:41.932Z,20.10
2023-05-23T13:50:11.381Z,20.10
2023-05-23T13:52:42.949Z,20.10
2023-05-23T13:55:12.867Z,20.10
2023-05-23T13:57:41.219Z,20.20
2023-05-23T14:00:10.618Z,20.20
2023-05-23T14:02:39.047Z,20.20
2023-05-23T14:05:11.115Z,20.10
2023-05-23T14:07:39.528Z,20.20
2023-05-23T14:10:09.467Z,20.30
2023-05-23T14:12:37.889Z,20.30
2023-05-23T14:15:06.757Z,20.30
2023-05-23T14:17:34.975Z,20.30
2023-05-23T14:20:03.687Z,20.30
2023-05-23T14:22:33.442Z,20.20
2023-05-23T14:25:01.964Z,20.20
2023-05-23T14:27:30.285Z,20.30
2023-05-23T14:29:58.776Z,20.20
2023-05-23T14:32:27.063Z,20.30
2023-05-23T14:34:55.555Z,20.20
2023-05-23T14:37:24.319Z,20.20
2023-05-23T14:39:54.654Z,20.20
2023-05-23T14:42:23.312Z,20.20
2023-05-23T14:44:51.543Z,20.20
2023-05-23T14:47:20.526Z,20.30
2023-05-23T14:49:49.041Z,20.20
2023-05-23T14:52:18.698Z,20.20
2023-05-23T14:54:47.147Z,20.20
2023-05-23T14:57:16.758Z,20.20
2023-05-23T14:59:45.041Z,20.10
2023-05-23T15:02:13.386Z,20.20
2023-05-23T15:04:42.155Z,20.20
2023-05-23T15:07:10.404Z,20.20
2023-05-23T15:09:38.946Z,20.20
2023-05-23T15:12:09.841Z,20.20
2023-05-23T15:14:39.850Z,20.20
2023-05-23T15:17:08.943Z,20.20
2023-05-23T15:19:37.913Z,20.20
2023-05-23T15:22:06.637Z,20.20
2023-05-23T15:24:35.134Z,20.20
2023-05-23T15:27:18.770Z,20.20
2023-05-23T15:29:49.857Z,20.10
2023-05-23T15:32:18.007Z,20.20
2023-05-23T15:34:46.242Z,20.10
2023-05-23T15:37:14.398Z,20.10
2023-05-23T15:39:42.931Z,20.10
2023-05-23T15:42:11.422Z,20.10
2023-05-23T15:44:39.925Z,20.20
2023-05-23T15:47:10.189Z,20.20
2023-05-23T15:49:38.553Z,20.30
2023-05-23T15:52:06.927Z,20.30
2023-05-23T15:54:35.137Z,20.20
2023-05-23T15:57:03.410Z,20.20
2023-05-23T15:59:31.822Z,20.20
2023-05-23T16:02:00.294Z,20.20
2023-05-23T16:04:30.161Z,20.30
2023-05-23T16:06:58.342Z,20.40
2023-05-23T16:09:26.968Z,20.40
2023-05-23T16:11:55.541Z,20.40
2023-05-23T16:14:23.898Z,20.40
2023-05-23T16:16:52.146Z,20.30
2023-05-23T16:19:20.503Z,20.30
2023-05-23T16:21:50.484Z,20.30
2023-05-23T16:24:19.493Z,20.30
2023-05-23T16:26:47.656Z,20.30
2023-05-23T16:29:15.917Z,20.30
2023-05-23T16:31:44.338Z,20.30
2023-05-23T16:34:12.700Z,20.30
2023-05-23T16:36:41.101Z,20.40
2023-05-23T16:39:10.789Z,20.40
2023-05-23T16:41:39.052Z,20.40
2023-05-23T16:44:07.353Z,20.40
2023-05-23T16:46:35.565Z,20.40
2023-05-23T16:49:03.781Z,20.40
2023-05-23T16:51:32.378Z,20.40
2023-05-23T16:54:01.100Z,20.40
2023-05-23T16:56:31.204Z,20.40
2023-05-23T16:58:59.394Z,20.40
2023-05-23T17:01:27.714Z,20.40
2023-05-23T17:03:57.035Z,20.30
2023-05-23T17:06:25.317Z,20.30
2023-05-23T17:08:53.512Z,20.30
2023-05-23T17:11:21.739Z,20.20
2023-05-23T17:13:52.132Z,20.20
2023-05-23T17:16:21.087Z,20.30
2023-05-23T17:18:49.583Z,20.30
2023-05-23T17:21:17.847Z,20.30
2023-05-23T17:23:46.001Z,20.20
2023-05-23T17:26:14.320Z,20.20
2023-05-23T17:28:42.417Z,20.20
2023-05-23T17:31:12.100Z,20.20
2023-05-23T17:33:41.459Z,20.20
2023-05-23T17:36:09.778Z,20.10
2023-05-23T17:38:38.673Z,20.10
2023-05-23T17:41:06.870Z,20.00
2023-05-23T17:43:35.034Z,20.00
2023-05-23T17:46:03.219Z,19.90
2023-05-23T17:48:46.406Z,19.90
2023-05-23T17:51:16.830Z,19.80
2023-05-23T17:53:45.011Z,19.80
2023-05-23T17:56:13.240Z,19.80
2023-05-23T17:58:43.918Z,19.70
2023-05-23T18:01:13.682Z,19.70
2023-05-23T18:03:43.663Z,19.60
2023-05-23T18:06:11.961Z,19.60
2023-05-23T18:08:40.092Z,19.50
2023-05-23T18:11:08.260Z,19.50
2023-05-23T18:13:36.520Z,19.40
2023-05-23T18:16:04.917Z,19.30
2023-05-23T18:18:33.556Z,19.30
2023-05-23T18:21:03.744Z,19.20
2023-05-23T18:23:32.221Z,19.20
2023-05-23T18:26:00.657Z,19.10
2023-05-23T18:28:28.813Z,19.00
2023-05-23T18:30:57.522Z,19.00
2023-05-23T18:33:28.016Z,18.90
2023-05-23T18:35:56.532Z,18.90
2023-05-23T18:38:26.258Z,18.80
2023-05-23T18:40:54.462Z,18.80
2023-05-23T18:43:23.826Z,18.70
2023-05-23T18:45:52.005Z,18.60
2023-05-23T18:48:20.654Z,18.60
2023-05-23T18:50:48.868Z,18.60
2023-05-23T18:53:17.026Z,18.60
2023-05-23T18:55:46.548Z,18.50
2023-05-23T18:58:14.799Z,18.50
2023-05-23T19:00:44.323Z,18.40
2023-05-23T19:03:12.697Z,18.40
2023-05-23T19:05:41.172Z,18.40
2023-05-23T19:08:09.804Z,18.30
2023-05-23T19:10:37.943Z,18.20
2023-05-23T19:13:08.056Z,18.10
2023-05-23T19:15:36.186Z,18.10
2023-05-23T19:18:04.713Z,18.00
2023-05-23T19:20:32.913Z,18.00
2023-05-23T19:23:01.313Z,18.00
2023-05-23T19:25:29.514Z,17.90
2023-05-23T19:27:57.750Z,17.90
2023-05-23T19:30:27.316Z,17.80
2023-05-23T19:32:55.519Z,17.80
2023-05-23T19:35:23.978Z,17.70
2023-05-23T19:37:52.339Z,17.70
2023-05-23T19:40:21.737Z,17.60
2023-05-23T19:42:50.280Z,17.60
2023-05-23T19:45:19.206Z,17.50
2023-05-23T19:47:49.020Z,17.50
2023-05-23T19:50:17.304Z,17.50
2023-05-23T19:52:45.558Z,17.40
2023-05-23T19:55:14.620Z,17.40
2023-05-23T19:57:42.860Z,17.40
2023-05-23T20:00:14.762Z,17.30
2023-05-23T20:02:44.611Z,17.30
2023-05-23T20:05:14.795Z,17.30
2023-05-23T20:07:43.243Z,17.30
2023-05-23T20:10:12.070Z,17.20
2023-05-23T20:12:40.340Z,17.10
2023-05-23T20:15:09.775Z,17.10
2023-05-23T20:17:38.130Z,17.00
2023-05-23T20:20:07.599Z,17.00
2023-05-23T20:22:37.754Z,17.00
2023-05-23T20:25:07.059Z,16.90
2023-05-23T20:27:35.347Z,16.90
2023-05-23T20:30:04.091Z,16.90
2023-05-23T20:32:32.426Z,16.90
2023-05-23T20:35:01.068Z,16.80
2023-05-23T20:37:29.433Z,16.80
2023-05-23T20:40:00.635Z,16.80
2023-05-23T20:42:31.125Z,16.80
2023-05-23T20:44:59.588Z,16.80
2023-05-23T20:47:28.338Z,16.70
2023-05-23T20:49:58.374Z,16.70
2023-05-23T20:52:27.223Z,16.60
2023-05-23T20:54:55.898Z,16.50
2023-05-23T20:57:25.854Z,16.50
2023-05-23T20:59:54.476Z,16.50
2023-05-23T21:02:22.886Z,16.40
2023-05-23T21:04:51.704Z,16.40
2023-05-23T21:07:20.316Z,16.40
2023-05-23T21:09:48.633Z,16.30
2023-05-23T21:12:16.893Z,16.30
2023-05-23T21:14:46.554Z,16.20
2023-05-23T21:17:16.026Z,16.20
2023-05-23T21:19:44.425Z,16.10
2023-05-23T21:22:12.725Z,16.10
2023-05-23T21:24:41.316Z,16.00
2023-05-23T21:27:09.877Z,16.00
2023-05-23T21:29:38.171Z,16.00
2023-05-23T21:32:08.432Z,15.90
2023-05-23T21:34:36.708Z,15.90
2023-05-23T21:37:05.503Z,15.90
2023-05-23T21:39:47.103Z,15.80
2023-05-23T21:42:19.113Z,15.80
2023-05-23T21:44:47.346Z,15.80
2023-05-23T21:47:17.182Z,15.70
2023-05-23T21:49:45.558Z,15.70
2023-05-23T21:52:13.812Z,15.70
2023-05-23T21:54:42.528Z,15.70
2023-05-23T21:57:10.935Z,15.70
2023-05-23T21:59:39.516Z,15.60
2023-05-23T22:02:07.807Z,15.60
2023-05-23T22:04:37.495Z,15.60
2023-05-23T22:07:06.083Z,15.50
2023-05-23T22:09:34.266Z,15.50
2023-05-23T22:12:02.772Z,15.40
2023-05-23T22:14:30.940Z,15.40
2023-05-23T22:17:02.204Z,15.40
2023-05-23T22:19:30.528Z,15.40
2023-05-23T22:22:00.331Z,15.30
2023-05-23T22:24:29.253Z,15.30
2023-05-23T22:26:58.384Z,15.30
2023-05-23T22:29:26.582Z,15.30
2023-05-23T22:31:54.951Z,15.30
2023-05-23T22:34:23.200Z,15.30
2023-05-23T22:36:52.201Z,15.30
2023-05-23T22:39:21.781Z,15.30
2023-05-23T22:41:50.100Z,15.30
2023-05-23T22:44:18.427Z,15.30
2023-05-23T22:46:46.758Z,15.30
2023-05-23T22:49:15.507Z,15.30
2023-05-23T22:51:44.765Z,15.20
2023-05-23T22:54:12.937Z,15.20
2023-05-23T22:56:42.556Z,15.20
2023-05-23T22:59:10.719Z,15.20
2023-05-23T23:01:39.167Z,15.20
2023-05-23T23:04:07.305Z,15.20
2023-05-23T23:06:35.714Z,15.20
2023-05-23T23:09:05.081Z,15.20
2023-05-23T23:11:33.429Z,15.20
2023-05-23T23:14:03.247Z,15.20
2023-05-23T23:16:32.128Z,15.20
2023-05-23T23:19:00.375Z,15.20
2023-05-23T23:21:28.589Z,15.20
2023-05-23T23:23:56.952Z,15.20
2023-05-23T23:26:26.141Z,15.20
2023-05-23T23:28:54.312Z,15.20
2023-05-23T23:31:23.996Z,15.20
2023-05-23T23:33:52.293Z,15.20
2023-05-23T23:36:20.499Z,15.20
2023-05-23T23:38:48.874Z,15.20
2023-05-23T23:41:17.124Z,15.20
2023-05-23T23:43:45.417Z,15.20
2023-05-23T23:46:13.896Z,15.20
2023-05-23T23:48:43.495Z,15.20
2023-05-23T23:51:12.989Z,15.20
2023-05-23T23:53:41.448Z,15.10
2023-05-23T23:56:09.626Z,15.10
2023-05-23T23:58:37.949Z,15.10
